createdAt,value
2018-11-13T00:00:17.926Z,12.27
2018-11-13T00:02:46.579Z,12.40
2018-11-13T00:05:15.219Z,12.26
2018-11-13T00:07:44.560Z,12.25
2018-11-13T00:10:13.617Z,12.21
2018-11-13T00:12:42.647Z,12.18
2018-11-13T00:15:11.850Z,12.28
2018-11-13T00:17:40.639Z,12.34
2018-11-13T00:20:12.846Z,12.31
2018-11-13T00:22:41.751Z,12.31
2018-11-13T00:25:11.962Z,12.32
2018-11-13T00:27:41.141Z,12.37
2018-11-13T00:30:12.874Z,12.27
2018-11-13T00:32:41.907Z,12.22
2018-11-13T00:35:10.731Z,12.29
2018-11-13T00:37:39.331Z,12.27
2018-11-13T00:40:09.112Z,12.14
2018-11-13T00:42:37.708Z,12.16
2018-11-13T00:45:06.604Z,12.17
2018-11-13T00:47:35.260Z,12.31
2018-11-13T00:50:04.116Z,12.11
2018-11-13T00:52:33.179Z,12.05
2018-11-13T00:55:02.346Z,12.11
2018-11-13T00:57:30.593Z,12.11
2018-11-13T00:59:59.264Z,12.10
2018-11-13T01:02:28.114Z,11.98
2018-11-13T01:04:56.736Z,11.93
2018-11-13T01:07:25.425Z,11.89
2018-11-13T01:09:54.097Z,11.98
2018-11-13T01:12:22.718Z,11.90
2018-11-13T01:14:51.335Z,11.90
2018-11-13T01:17:19.973Z,11.97
2018-11-13T01:19:48.600Z,11.85
2018-11-13T01:22:17.264Z,11.92
2018-11-13T01:24:45.883Z,12.10
2018-11-13T01:27:14.731Z,12.11
2018-11-13T01:29:47.586Z,12.01
2018-11-13T01:32:16.224Z,11.97
2018-11-13T01:34:44.884Z,11.85
2018-11-13T01:37:13.560Z,11.76
2018-11-13T01:39:42.188Z,11.98
2018-11-13T01:42:10.821Z,11.82
2018-11-13T01:44:39.487Z,11.82
2018-11-13T01:47:08.153Z,11.90
2018-11-13T01:49:37.195Z,11.90
2018-11-13T01:52:05.962Z,11.91
2018-11-13T01:54:34.823Z,12.02
2018-11-13T01:57:03.779Z,11.89
2018-11-13T01:59:32.634Z,11.93
2018-11-13T02:02:01.281Z,11.88
2018-11-13T02:04:29.961Z,11.93
2018-11-13T02:06:58.600Z,12.00
2018-11-13T02:09:27.228Z,12.00
2018-11-13T02:11:55.875Z,11.97
2018-11-13T02:14:24.479Z,12.04
2018-11-13T02:16:53.100Z,11.77
2018-11-13T02:19:21.700Z,11.97
2018-11-13T02:21:50.337Z,11.88
2018-11-13T02:24:19.070Z,11.90
2018-11-13T02:26:47.656Z,11.90
2018-11-13T02:29:16.444Z,11.94
2018-11-13T02:31:45.134Z,12.10
2018-11-13T02:34:13.812Z,12.00
2018-11-13T02:36:42.467Z,11.92
2018-11-13T02:39:11.557Z,12.03
2018-11-13T02:41:40.540Z,12.10
2018-11-13T02:44:09.436Z,12.10
2018-11-13T02:46:38.428Z,11.81
2018-11-13T02:49:07.048Z,11.87
2018-11-13T02:51:36.027Z,11.99
2018-11-13T02:54:04.840Z,11.97
2018-11-13T02:56:34.218Z,11.86
2018-11-13T02:59:03.124Z,11.82
2018-11-13T03:01:31.771Z,11.82
2018-11-13T03:04:00.428Z,11.85
2018-11-13T03:06:29.095Z,11.84
2018-11-13T03:11:32.708Z,11.79
2018-11-13T03:14:01.349Z,11.87
2018-11-13T03:16:29.970Z,11.91
2018-11-13T03:18:58.642Z,11.83
2018-11-13T03:21:27.306Z,11.84
2018-11-13T03:23:55.963Z,11.86
2018-11-13T03:26:24.865Z,11.82
2018-11-13T03:28:53.484Z,11.82
2018-11-13T03:31:22.202Z,11.70
2018-11-13T03:33:50.737Z,11.87
2018-11-13T03:36:19.383Z,11.62
2018-11-13T03:38:48.032Z,11.64
2018-11-13T03:41:16.648Z,11.75
2018-11-13T03:43:45.260Z,11.79
2018-11-13T03:46:13.872Z,11.58
2018-11-13T03:48:42.681Z,11.63
2018-11-13T03:51:11.312Z,11.60
2018-11-13T03:53:40.008Z,11.58
2018-11-13T03:56:08.643Z,11.57
2018-11-13T03:58:37.300Z,11.62
2018-11-13T04:01:06.012Z,11.48
2018-11-13T04:03:34.686Z,11.42
2018-11-13T04:06:03.328Z,11.34
2018-11-13T04:08:31.944Z,11.36
2018-11-13T04:11:00.575Z,11.48
2018-11-13T04:13:29.183Z,11.44
2018-11-13T04:15:57.895Z,11.45
2018-11-13T04:18:26.537Z,11.41
2018-11-13T04:20:55.241Z,11.39
2018-11-13T04:23:23.907Z,11.48
2018-11-13T04:25:52.504Z,11.48
2018-11-13T04:28:21.184Z,11.49
2018-11-13T04:30:49.967Z,11.45
2018-11-13T04:33:18.549Z,11.40
2018-11-13T04:35:47.182Z,11.43
2018-11-13T04:38:15.799Z,11.27
2018-11-13T04:40:44.460Z,11.24
2018-11-13T04:43:13.123Z,11.40
2018-11-13T04:45:41.759Z,11.43
2018-11-13T04:48:10.409Z,11.36
2018-11-13T04:50:39.064Z,11.28
2018-11-13T04:53:07.680Z,11.19
2018-11-13T04:55:36.344Z,11.23
2018-11-13T04:58:06.470Z,11.13
2018-11-13T05:00:35.237Z,11.22
2018-11-13T05:03:03.915Z,11.10
2018-11-13T05:05:32.637Z,11.14
2018-11-13T05:08:01.284Z,11.04
2018-11-13T05:10:29.907Z,11.23
2018-11-13T05:12:58.538Z,11.32
2018-11-13T05:15:27.195Z,11.22
2018-11-13T05:17:56.019Z,11.15
2018-11-13T05:20:24.739Z,11.07
2018-11-13T05:22:53.676Z,10.94
2018-11-13T05:25:22.377Z,11.01
2018-11-13T05:27:51.136Z,10.90
2018-11-13T05:30:22.039Z,10.87
2018-11-13T05:32:51.986Z,10.94
2018-11-13T05:35:21.508Z,10.99
2018-11-13T05:37:50.261Z,10.92
2018-11-13T05:40:20.527Z,10.86
2018-11-13T05:42:50.338Z,11.00
2018-11-13T05:45:20.573Z,10.98
2018-11-13T05:47:49.201Z,10.97
2018-11-13T05:50:18.628Z,10.95
2018-11-13T05:52:48.783Z,10.89
2018-11-13T05:55:17.619Z,10.90
2018-11-13T05:57:46.379Z,10.87
2018-11-13T06:00:34.100Z,10.74
2018-11-13T06:03:03.763Z,10.63
2018-11-13T06:05:33.258Z,10.75
2018-11-13T06:08:01.912Z,10.74
2018-11-13T06:10:30.652Z,10.68
2018-11-13T06:12:59.280Z,10.74
2018-11-13T06:15:27.934Z,10.75
2018-11-13T06:17:56.609Z,10.89
2018-11-13T06:20:25.240Z,10.77
2018-11-13T06:22:53.914Z,10.67
2018-11-13T06:25:22.561Z,10.62
2018-11-13T06:27:51.196Z,10.68
2018-11-13T06:30:21.344Z,10.55
2018-11-13T06:32:50.408Z,10.74
2018-11-13T06:35:19.051Z,10.60
2018-11-13T06:37:47.736Z,10.68
2018-11-13T06:40:16.368Z,10.63
2018-11-13T06:42:45.208Z,10.55
2018-11-13T06:45:16.988Z,10.57
2018-11-13T06:47:46.395Z,10.64
2018-11-13T06:50:15.049Z,10.58
2018-11-13T06:52:45.486Z,10.35
2018-11-13T06:55:20.284Z,10.40
2018-11-13T06:57:48.915Z,10.27
2018-11-13T07:00:17.639Z,10.40
2018-11-13T07:02:46.324Z,10.42
2018-11-13T07:05:16.319Z,10.36
2018-11-13T07:07:45.356Z,10.41
2018-11-13T07:10:15.336Z,10.38
2018-11-13T07:12:46.303Z,10.46
2018-11-13T07:15:16.640Z,10.51
2018-11-13T07:17:46.645Z,10.68
2018-11-13T07:20:16.176Z,10.67
2018-11-13T07:22:44.852Z,10.53
2018-11-13T07:25:14.890Z,10.57
2018-11-13T07:27:44.882Z,10.60
2018-11-13T07:30:14.747Z,10.50
2018-11-13T07:32:43.533Z,10.57
2018-11-13T07:35:13.519Z,10.51
2018-11-13T07:37:52.263Z,10.62
2018-11-13T07:40:21.932Z,10.54
2018-11-13T07:42:50.860Z,10.56
2018-11-13T07:45:19.535Z,10.57
2018-11-13T07:47:51.516Z,10.74
2018-11-13T07:50:20.015Z,10.75
2018-11-13T07:52:48.688Z,10.67
2018-11-13T07:55:17.636Z,10.65
2018-11-13T07:57:46.423Z,10.67
2018-11-13T08:00:17.234Z,10.62
2018-11-13T08:02:47.489Z,10.53
2018-11-13T08:05:16.144Z,10.57
2018-11-13T08:07:44.816Z,10.71
2018-11-13T08:10:13.780Z,10.69
2018-11-13T08:12:42.455Z,10.82
2018-11-13T08:15:14.588Z,10.59
2018-11-13T08:17:43.783Z,10.67
2018-11-13T08:20:13.688Z,10.52
2018-11-13T08:22:42.781Z,10.54
2018-11-13T08:25:11.854Z,10.56
2018-11-13T08:27:41.144Z,10.49
2018-11-13T08:30:12.149Z,10.40
2018-11-13T08:32:40.795Z,10.50
2018-11-13T08:35:09.532Z,10.42
2018-11-13T08:37:39.087Z,10.40
2018-11-13T08:40:09.667Z,10.43
2018-11-13T08:42:38.313Z,10.48
2018-11-13T08:45:08.051Z,10.41
2018-11-13T08:47:36.828Z,10.53
2018-11-13T08:50:05.893Z,10.63
2018-11-13T08:52:34.500Z,10.60
2018-11-13T08:55:03.279Z,10.71
2018-11-13T08:57:31.941Z,10.65
2018-11-13T09:00:00.564Z,10.60
2018-11-13T09:02:29.268Z,10.66
2018-11-13T09:04:58.032Z,10.59
2018-11-13T09:07:26.587Z,10.57
2018-11-13T09:09:55.213Z,10.53
2018-11-13T09:12:23.982Z,10.44
2018-11-13T09:14:52.733Z,10.39
2018-11-13T09:17:21.491Z,10.40
2018-11-13T09:19:50.306Z,10.53
2018-11-13T09:22:18.912Z,10.59
2018-11-13T09:24:47.604Z,10.54
2018-11-13T09:27:16.276Z,10.71
2018-11-13T09:29:45.071Z,10.64
2018-11-13T09:32:13.713Z,10.60
2018-11-13T09:34:42.498Z,10.66
2018-11-13T09:37:11.152Z,10.63
2018-11-13T09:39:39.927Z,10.52
2018-11-13T09:42:08.631Z,10.69
2018-11-13T09:44:37.269Z,10.63
2018-11-13T09:47:06.273Z,10.67
2018-11-13T09:49:34.910Z,10.70
2018-11-13T09:52:03.562Z,10.70
2018-11-13T09:54:32.183Z,10.62
2018-11-13T09:57:00.992Z,10.81
2018-11-13T09:59:29.627Z,10.78
2018-11-13T10:01:58.506Z,10.84
2018-11-13T10:04:28.018Z,10.89
2018-11-13T10:06:56.184Z,11.02
2018-11-13T10:09:24.982Z,11.00
2018-11-13T10:11:54.676Z,10.95
2018-11-13T10:14:23.488Z,11.00
2018-11-13T10:16:52.221Z,11.02
2018-11-13T10:19:21.468Z,11.11
2018-11-13T10:21:50.163Z,11.07
2018-11-13T10:24:18.970Z,11.07
2018-11-13T10:26:47.588Z,11.01
2018-11-13T10:29:16.235Z,11.12
2018-11-13T10:31:44.861Z,11.13
2018-11-13T10:34:13.519Z,11.13
2018-11-13T10:36:42.237Z,11.27
2018-11-13T10:39:11.308Z,11.30
2018-11-13T10:41:40.000Z,11.42
2018-11-13T10:44:08.656Z,11.40
2018-11-13T10:46:37.600Z,11.41
2018-11-13T10:49:06.406Z,11.40
2018-11-13T10:51:35.003Z,11.36
2018-11-13T10:54:03.739Z,11.32
2018-11-13T10:56:32.464Z,11.26
2018-11-13T10:59:01.072Z,11.28
2018-11-13T11:01:35.188Z,11.33
2018-11-13T11:04:09.311Z,11.29
2018-11-13T11:06:37.968Z,11.34
2018-11-13T11:09:08.706Z,11.38
2018-11-13T11:11:37.568Z,11.36
2018-11-13T11:14:06.301Z,11.30
2018-11-13T11:16:34.889Z,11.19
2018-11-13T11:19:03.647Z,11.22
2018-11-13T11:21:32.302Z,11.10
2018-11-13T11:24:00.974Z,11.11
2018-11-13T11:26:29.737Z,11.10
2018-11-13T11:28:58.308Z,11.14
2018-11-13T11:31:26.940Z,11.27
2018-11-13T11:33:55.572Z,11.34
2018-11-13T11:36:24.215Z,11.47
2018-11-13T11:38:53.079Z,11.51
2018-11-13T11:41:21.630Z,11.62
2018-11-13T11:43:50.265Z,11.63
2018-11-13T11:46:18.961Z,11.62
2018-11-13T11:48:47.666Z,11.60
2018-11-13T11:51:16.289Z,11.64
2018-11-13T11:53:45.066Z,11.58
2018-11-13T11:56:13.634Z,11.70
2018-11-13T11:58:42.309Z,11.90
2018-11-13T12:01:10.964Z,12.01
2018-11-13T12:03:39.603Z,12.03
2018-11-13T12:06:08.257Z,12.10
2018-11-13T12:08:36.917Z,12.00
2018-11-13T12:11:05.640Z,11.98
2018-11-13T12:13:34.295Z,12.06
2018-11-13T12:16:03.103Z,12.17
2018-11-13T12:18:32.589Z,12.26
2018-11-13T12:21:01.326Z,12.34
2018-11-13T12:23:29.917Z,12.18
2018-11-13T12:25:58.675Z,12.23
2018-11-13T12:28:27.203Z,12.26
2018-11-13T12:30:55.877Z,12.34
2018-11-13T12:33:24.525Z,12.32
2018-11-13T12:35:53.203Z,12.23
2018-11-13T12:38:21.841Z,12.25
2018-11-13T12:40:50.542Z,12.23
2018-11-13T12:43:19.178Z,12.29
2018-11-13T12:45:47.810Z,12.26
2018-11-13T12:48:16.544Z,12.30
2018-11-13T12:50:50.506Z,12.34
2018-11-13T12:53:19.255Z,12.36
2018-11-13T12:55:47.951Z,12.34
2018-11-13T12:58:16.660Z,12.42
2018-11-13T13:00:45.288Z,12.47
2018-11-13T13:03:13.919Z,12.38
2018-11-13T13:05:42.556Z,12.32
2018-11-13T13:08:11.210Z,12.21
2018-11-13T13:10:39.963Z,12.20
2018-11-13T13:13:08.600Z,12.31
2018-11-13T13:15:37.344Z,12.34
2018-11-13T13:18:05.994Z,12.44
2018-11-13T13:20:34.661Z,12.33
2018-11-13T13:23:03.297Z,12.48
2018-11-13T13:25:31.905Z,12.44
2018-11-13T13:28:00.644Z,12.56
2018-11-13T13:30:29.358Z,12.57
2018-11-13T13:32:58.058Z,12.77
2018-11-13T13:35:46.775Z,12.89
2018-11-13T13:38:15.420Z,12.56
2018-11-13T13:40:44.963Z,12.37
2018-11-13T13:43:14.433Z,12.45
2018-11-13T13:45:43.811Z,12.41
2018-11-13T13:48:12.503Z,12.47
2018-11-13T13:50:41.120Z,12.42
2018-11-13T13:53:10.832Z,12.47
2018-11-13T13:55:39.631Z,12.42
2018-11-13T13:58:08.296Z,12.48
2018-11-13T14:00:36.966Z,12.35
2018-11-13T14:03:06.888Z,12.28
2018-11-13T14:05:35.513Z,12.28
2018-11-13T14:08:04.715Z,12.33
2018-11-13T14:10:33.500Z,12.33
2018-11-13T14:13:02.164Z,12.21
2018-11-13T14:15:30.872Z,12.27
2018-11-13T14:17:59.912Z,12.27
2018-11-13T14:20:28.547Z,12.30
2018-11-13T14:22:57.243Z,12.18
2018-11-13T14:25:25.856Z,12.14
2018-11-13T14:27:54.474Z,11.99
2018-11-13T14:30:27.464Z,12.02
2018-11-13T14:32:57.511Z,12.18
2018-11-13T14:35:26.179Z,12.08
2018-11-13T14:37:54.813Z,12.08
2018-11-13T14:40:26.796Z,12.13
2018-11-13T14:42:55.486Z,12.13
2018-11-13T14:45:24.900Z,12.04
2018-11-13T14:47:54.070Z,11.96
2018-11-13T14:50:24.945Z,12.15
2018-11-13T14:52:53.963Z,12.02
2018-11-13T14:55:28.805Z,12.25
2018-11-13T14:57:58.064Z,12.26
2018-11-13T15:00:27.800Z,12.04
2018-11-13T15:02:57.161Z,11.81
2018-11-13T15:05:26.513Z,11.68
2018-11-13T15:07:59.550Z,11.84
2018-11-13T15:10:33.984Z,11.92
2018-11-13T15:13:02.673Z,11.81
2018-11-13T15:15:31.323Z,11.57
2018-11-13T15:18:00.068Z,11.68
2018-11-13T15:20:28.711Z,11.78
2018-11-13T15:22:57.413Z,11.72
2018-11-13T15:25:26.170Z,11.55
2018-11-13T15:27:54.992Z,11.34
2018-11-13T15:30:26.572Z,11.09
2018-11-13T15:32:56.739Z,11.07
2018-11-13T15:35:25.892Z,10.98
2018-11-13T15:37:54.565Z,10.95
2018-11-13T15:40:24.609Z,10.82
2018-11-13T15:42:53.267Z,10.81
2018-11-13T15:45:22.138Z,10.74
2018-11-13T15:47:51.692Z,10.65
2018-11-13T15:50:24.425Z,10.51
2018-11-13T15:52:54.394Z,10.49
2018-11-13T15:55:23.771Z,10.52
2018-11-13T15:57:52.689Z,10.45
2018-11-13T16:00:24.753Z,10.51
2018-11-13T16:02:54.208Z,10.44
2018-11-13T16:05:40.062Z,10.39
2018-11-13T16:08:09.583Z,10.48
2018-11-13T16:10:39.509Z,10.33
2018-11-13T16:13:08.338Z,10.52
2018-11-13T16:15:37.251Z,10.63
2018-11-13T16:18:10.218Z,10.64
2018-11-13T16:20:38.938Z,10.64
2018-11-13T16:23:07.783Z,10.64
2018-11-13T16:25:36.462Z,10.62
2018-11-13T16:28:05.112Z,10.56
2018-11-13T16:30:35.236Z,10.57
2018-11-13T16:33:04.024Z,10.52
2018-11-13T16:35:33.075Z,10.55
2018-11-13T16:38:03.891Z,10.41
2018-11-13T16:40:33.219Z,10.34
2018-11-13T16:43:02.701Z,10.36
2018-11-13T16:45:32.362Z,10.30
2018-11-13T16:48:01.785Z,10.24
2018-11-13T16:50:34.217Z,10.25
2018-11-13T16:53:03.221Z,10.14
2018-11-13T16:55:37.623Z,10.21
2018-11-13T16:58:07.605Z,10.00
2018-11-13T17:00:36.328Z,9.99
2018-11-13T17:03:05.261Z,9.96
2018-11-13T17:05:34.654Z,9.96
2018-11-13T17:08:03.187Z,9.88
2018-11-13T17:10:32.354Z,9.81
2018-11-13T17:13:01.687Z,9.95
2018-11-13T17:15:31.482Z,9.81
2018-11-13T17:18:01.397Z,9.70
2018-11-13T17:20:31.153Z,9.71
2018-11-13T17:23:00.591Z,9.77
2018-11-13T17:25:31.757Z,9.78
2018-11-13T17:28:00.565Z,9.78
2018-11-13T17:30:31.461Z,9.71
2018-11-13T17:33:01.290Z,9.75
2018-11-13T17:35:30.610Z,9.85
2018-11-13T17:38:00.224Z,9.72
2018-11-13T17:40:30.266Z,9.81
2018-11-13T17:43:01.058Z,9.78
2018-11-13T17:45:31.024Z,9.72
2018-11-13T17:48:00.013Z,9.74
2018-11-13T17:50:31.369Z,9.65
2018-11-13T17:53:00.134Z,9.89
2018-11-13T17:55:28.723Z,9.79
2018-11-13T17:57:59.145Z,9.71
2018-11-13T18:00:36.072Z,9.66
2018-11-13T18:03:05.968Z,9.71
2018-11-13T18:05:35.230Z,9.65
2018-11-13T18:08:04.605Z,9.78
2018-11-13T18:10:34.077Z,9.66
2018-11-13T18:13:02.720Z,9.67
2018-11-13T18:15:31.483Z,9.63
2018-11-13T18:18:00.333Z,9.63
2018-11-13T18:20:33.177Z,9.56
2018-11-13T18:23:01.836Z,9.75
2018-11-13T18:25:30.575Z,9.68
2018-11-13T18:28:00.354Z,9.79
2018-11-13T18:30:30.183Z,9.71
2018-11-13T18:32:59.599Z,9.80
2018-11-13T18:35:29.640Z,9.86
2018-11-13T18:37:59.213Z,9.91
2018-11-13T18:40:28.059Z,9.83
2018-11-13T18:42:58.093Z,9.78
2018-11-13T18:45:29.063Z,9.80
2018-11-13T18:47:57.756Z,9.67
2018-11-13T18:50:29.562Z,9.72
2018-11-13T18:52:58.300Z,9.81
2018-11-13T18:55:27.701Z,9.72
2018-11-13T18:57:56.884Z,9.74
2018-11-13T19:00:33.404Z,9.75
2018-11-13T19:03:03.036Z,9.70
2018-11-13T19:05:31.720Z,9.62
2018-11-13T19:08:00.609Z,9.71
2018-11-13T19:10:31.313Z,9.62
2018-11-13T19:13:01.536Z,9.62
2018-11-13T19:15:31.677Z,9.66
2018-11-13T19:18:00.543Z,9.60
2018-11-13T19:20:29.344Z,9.79
2018-11-13T19:22:57.969Z,9.85
2018-11-13T19:25:27.908Z,9.80
2018-11-13T19:27:57.403Z,10.01
2018-11-13T19:30:26.210Z,9.93
2018-11-13T19:32:55.660Z,9.93
2018-11-13T19:35:24.697Z,9.90
2018-11-13T19:37:53.257Z,9.97
2018-11-13T19:40:24.504Z,9.90
2018-11-13T19:42:54.741Z,9.92
2018-11-13T19:45:23.674Z,9.88
2018-11-13T19:47:52.664Z,9.91
2018-11-13T19:50:28.510Z,9.88
2018-11-13T19:52:57.783Z,9.94
2018-11-13T19:55:27.091Z,9.92
2018-11-13T19:57:57.538Z,9.91
2018-11-13T20:00:28.313Z,9.93
2018-11-13T20:02:58.386Z,9.91
2018-11-13T20:05:28.288Z,10.03
2018-11-13T20:07:57.143Z,9.96
2018-11-13T20:10:27.127Z,10.01
2018-11-13T20:12:57.056Z,9.93
2018-11-13T20:15:26.534Z,9.96
2018-11-13T20:17:55.149Z,9.99
2018-11-13T20:20:25.341Z,9.98
2018-11-13T20:22:54.587Z,9.97
2018-11-13T20:25:24.640Z,9.94
2018-11-13T20:27:53.351Z,10.11
2018-11-13T20:30:27.545Z,10.15
2018-11-13T20:32:56.233Z,9.98
2018-11-13T20:35:24.920Z,10.03
2018-11-13T20:37:54.864Z,10.07
2018-11-13T20:40:24.874Z,10.14
2018-11-13T20:42:54.918Z,10.18
2018-11-13T20:45:23.671Z,10.14
2018-11-13T20:47:52.373Z,10.23
2018-11-13T20:50:23.009Z,10.21
2018-11-13T20:52:51.670Z,10.22
2018-11-13T20:55:20.357Z,10.25
2018-11-13T20:57:49.097Z,10.35
2018-11-13T21:00:19.247Z,10.38
2018-11-13T21:02:48.253Z,10.29
2018-11-13T21:05:17.162Z,10.45
2018-11-13T21:07:46.251Z,10.24
2018-11-13T21:10:18.617Z,10.24
2018-11-13T21:12:47.277Z,10.11
2018-11-13T21:15:17.265Z,10.25
2018-11-13T21:17:46.924Z,10.38
2018-11-13T21:20:16.798Z,10.22
2018-11-13T21:22:45.481Z,10.40
2018-11-13T21:25:15.528Z,10.40
2018-11-13T21:27:45.815Z,10.35
2018-11-13T21:30:16.455Z,10.27
2018-11-13T21:32:45.922Z,10.34
2018-11-13T21:35:14.907Z,10.36
2018-11-13T21:37:44.917Z,10.36
2018-11-13T21:40:15.856Z,10.40
2018-11-13T21:42:45.277Z,10.41
2018-11-13T21:45:14.671Z,10.48
2018-11-13T21:47:43.669Z,10.33
2018-11-13T21:50:13.927Z,10.31
2018-11-13T21:52:43.164Z,10.27
2018-11-13T21:55:15.402Z,10.30
2018-11-13T21:57:44.204Z,10.26
2018-11-13T22:00:16.977Z,10.30
2018-11-13T22:02:47.928Z,10.29
2018-11-13T22:05:16.853Z,10.41
2018-11-13T22:07:46.114Z,10.41
2018-11-13T22:10:14.849Z,10.41
2018-11-13T22:12:43.803Z,10.48
2018-11-13T22:15:13.565Z,10.46
2018-11-13T22:17:42.533Z,10.48
2018-11-13T22:20:12.602Z,10.50
2018-11-13T22:22:41.264Z,10.62
2018-11-13T22:25:13.532Z,10.46
2018-11-13T22:27:42.762Z,10.55
2018-11-13T22:30:13.568Z,10.66
2018-11-13T22:32:42.797Z,10.69
2018-11-13T22:35:12.788Z,10.69
2018-11-13T22:37:41.412Z,10.82
2018-11-13T22:40:12.743Z,10.67
2018-11-13T22:42:41.408Z,10.70
2018-11-13T22:45:12.871Z,10.70
2018-11-13T22:47:41.743Z,10.71
2018-11-13T22:50:14.180Z,10.65
2018-11-13T22:52:43.621Z,10.63
2018-11-13T22:55:13.018Z,10.58
2018-11-13T22:57:42.681Z,10.70
2018-11-13T23:00:17.914Z,10.65
2018-11-13T23:02:46.936Z,10.65
2018-11-13T23:05:15.557Z,10.68
2018-11-13T23:07:44.220Z,10.73
2018-11-13T23:10:13.856Z,10.77
2018-11-13T23:12:43.183Z,10.85
2018-11-13T23:15:20.139Z,10.73
2018-11-13T23:17:48.740Z,10.72
2018-11-13T23:20:18.720Z,10.66
2018-11-13T23:22:47.375Z,10.60
2018-11-13T23:25:19.106Z,10.63
2018-11-13T23:27:49.001Z,10.51
2018-11-13T23:30:24.090Z,10.53
2018-11-13T23:32:53.175Z,10.64
2018-11-13T23:35:22.001Z,10.53
2018-11-13T23:37:51.951Z,10.55
2018-11-13T23:40:22.197Z,10.62
2018-11-13T23:42:51.152Z,10.50
2018-11-13T23:45:20.946Z,10.52
2018-11-13T23:47:49.999Z,10.55
2018-11-13T23:50:18.912Z,10.59
2018-11-13T23:52:48.661Z,10.68
2018-11-13T23:55:17.691Z,10.67
2018-11-13T23:57:46.930Z,10.62
